Time;durP1;ratioP1;P1;durP2;ratioP2;P2;SDS_P1;SDS_P2;PMS_P1;PMS_P2;Temp;Humidity;BMP_temperature;BMP_pressure;BME280_temperature;BME280_humidity;BME280_pressure;Samples;Min_cycle;Max_cycle;Signal;HPM_P1;HPM_P2
2021/05/21 18:44:07;;;;;;;;;1.00;0.00;;;;;16.12;39.84;100075.47;4996429;28;45415;-50
2021/05/21 19:00:19;;;;;;;;;0.25;0.25;;;;;15.76;42.66;100085.03;4996325;28;45307;-51
2021/05/21 19:02:44;;;;;;;;;0.50;0.50;;;;;15.63;43.01;100089.19;4996686;28;45641;-50
2021/05/21 19:05:11;;;;;;;;;2.75;1.75;;;;;15.50;44.19;100092.38;4996203;28;46582;-49
2021/05/21 19:16:16;;;;;;;;;1.25;1.00;;;;;15.23;45.82;100089.16;4968124;28;45391;-52
2021/05/21 19:18:44;;;;;;;;;3.75;2.25;;;;;15.15;46.73;100086.00;4995913;28;46814;-51
2021/05/21 19:21:16;;;;;;;;;2.00;2.00;;;;;15.08;47.12;100095.97;4995560;28;45396;-47
2021/05/21 19:23:43;;;;;;;;;0.25;0.00;;;;;14.99;46.99;100102.53;5002959;28;45218;-51
2021/05/21 19:26:09;;;;;;;;;1.00;1.00;;;;;14.89;47.85;100125.00;5030939;28;45257;-50
2021/05/21 20:00:15;;;;;;;;;1.75;1.75;;;;;14.00;51.02;100121.47;4968740;28;45613;-53
2021/05/21 20:13:20;;;;;;;;;2.00;0.00;;;;;13.85;49.77;100134.34;4960854;28;45460;-51
2021/05/21 20:15:46;;;;;;;;;1.50;1.00;;;;;13.80;49.71;100128.38;4980722;28;45305;-52
2021/05/21 20:18:13;;;;;;;;;1.00;0.00;;;;;13.78;49.53;100124.94;5001776;28;45379;-51
2021/05/21 20:20:38;;;;;;;;;1.75;1.75;;;;;13.79;49.30;100118.72;5000385;28;46961;-52
2021/05/21 20:23:05;;;;;;;;;0.00;0.00;;;;;13.76;49.10;100129.38;5015370;28;56033;-49
2021/05/21 20:25:32;;;;;;;;;0.25;0.00;;;;;13.74;48.99;100118.03;5005122;28;45318;-50
2021/05/21 20:30:31;;;;;;;;;1.00;1.00;;;;;13.70;48.20;100116.41;5001400;28;45344;-46
2021/05/21 20:33:01;;;;;;;;;2.00;0.00;;;;;13.64;47.72;100122.78;5001122;28;45293;-47
2021/05/21 21:02:10;;;;;;;;;0.00;0.00;;;;;13.12;49.84;100158.00;4986114;28;45456;-47
2021/05/21 21:21:09;;;;;;;;;1.50;1.00;;;;;12.96;51.76;100170.84;5000365;28;45471;-47
2021/05/21 21:26:33;;;;;;;;;1.00;1.00;;;;;12.85;52.60;100170.31;5000742;28;45341;-46
2021/05/21 21:29:42;;;;;;;;;0.00;0.00;;;;;12.78;53.02;100181.97;5000580;28;45488;-47
2021/05/21 21:45:33;;;;;;;;;0.25;0.00;;;;;12.59;54.54;100184.34;5013837;28;45501;-49
2021/05/21 21:53:58;;;;;;;;;2.00;0.00;;;;;12.54;54.61;100188.91;4874862;29;45273;-45
2021/05/21 21:56:44;;;;;;;;;2.00;0.25;;;;;12.51;54.95;100184.56;4977023;28;47207;-47
2021/05/21 22:02:04;;;;;;;;;0.25;0.25;;;;;12.50;54.48;100183.72;5000434;28;45309;-45
2021/05/21 22:23:18;;;;;;;;;2.50;0.50;;;;;12.27;55.67;100216.03;4999787;28;45486;-45
2021/05/21 22:25:45;;;;;;;;;2.00;1.75;;;;;12.29;55.96;100197.53;4999874;28;45420;-46
2021/05/21 22:28:11;;;;;;;;;0.50;0.00;;;;;12.27;55.38;100215.19;4982091;28;46056;-45
2021/05/21 22:30:38;;;;;;;;;4.75;2.75;;;;;12.22;56.32;100198.66;4966067;28;45925;-46
2021/05/21 22:33:03;;;;;;;;;2.00;1.00;;;;;12.19;56.27;100192.56;4966233;28;45297;-49
2021/05/21 22:35:29;;;;;;;;;0.75;0.00;;;;;12.21;56.21;100200.41;4982037;28;45582;-50
2021/05/21 22:37:54;;;;;;;;;4.00;1.00;;;;;12.18;56.72;100203.13;4999883;28;46333;-44
2021/05/21 22:40:21;;;;;;;;;0.50;0.50;;;;;12.17;57.11;100201.41;4999624;28;45306;-46
2021/05/21 22:42:48;;;;;;;;;1.00;0.75;;;;;12.14;57.00;100188.34;5000087;28;45370;-45
2021/05/21 22:45:14;;;;;;;;;3.00;1.75;;;;;12.15;57.03;100200.59;4979707;28;45527;-45
2021/05/21 22:47:39;;;;;;;;;1.75;1.75;;;;;12.13;57.28;100207.69;5005632;28;45958;-46
2021/05/21 22:50:05;;;;;;;;;1.00;1.00;;;;;12.02;57.53;100195.69;4965843;28;45365;-45
2021/05/21 22:52:31;;;;;;;;;1.00;1.00;;;;;12.05;57.77;100207.03;4966003;28;45309;-49
2021/05/21 22:54:56;;;;;;;;;2.00;2.00;;;;;12.02;57.27;100224.66;4965531;28;45431;-49
2021/05/21 22:57:22;;;;;;;;;0.00;0.00;;;;;12.02;57.39;100202.72;4998570;28;64564;-45
2021/05/21 22:59:47;;;;;;;;;2.00;2.00;;;;;11.99;57.45;100192.28;4981856;28;45174;-47
2021/05/21 23:02:12;;;;;;;;;3.25;0.75;;;;;11.99;57.28;100187.88;4982104;28;45343;-48
2021/05/21 23:04:38;;;;;;;;;0.50;0.50;;;;;11.92;57.11;100201.22;4992752;28;45492;-47
2021/05/21 23:07:04;;;;;;;;;0.00;0.00;;;;;11.91;57.67;100196.84;4999568;28;45360;-46
2021/05/21 23:09:29;;;;;;;;;3.75;0.50;;;;;11.89;57.45;100188.16;4999610;28;45268;-44
2021/05/21 23:11:54;;;;;;;;;0.75;0.75;;;;;11.90;56.95;100189.88;5001721;28;55588;-48
2021/05/21 23:14:20;;;;;;;;;0.00;0.00;;;;;11.89;57.15;100181.13;5002579;28;45317;-43
2021/05/21 23:16:45;;;;;;;;;3.00;2.00;;;;;11.90;57.58;100182.84;4985194;28;48269;-44
2021/05/21 23:19:11;;;;;;;;;1.00;1.00;;;;;11.89;57.29;100181.13;4985092;28;45427;-45
2021/05/21 23:21:36;;;;;;;;;2.25;2.00;;;;;11.89;57.24;100188.16;5002474;28;45855;-45
2021/05/21 23:24:02;;;;;;;;;0.75;0.00;;;;;11.88;57.47;100187.28;5002460;28;45420;-47
2021/05/21 23:26:28;;;;;;;;;3.00;1.00;;;;;11.88;56.86;100176.75;5002384;28;45508;-48
2021/05/21 23:28:55;;;;;;;;;2.50;0.00;;;;;11.85;57.16;100198.75;5002273;28;45436;-46
2021/05/21 23:31:20;;;;;;;;;2.50;1.00;;;;;11.83;56.94;100189.19;5002881;28;45230;-44
2021/05/21 23:33:46;;;;;;;;;1.00;1.00;;;;;11.81;57.40;100183.09;5002398;28;45242;-44
2021/05/21 23:36:11;;;;;;;;;0.00;0.00;;;;;11.81;57.53;100186.59;5002570;28;46041;-46
2021/05/21 23:38:36;;;;;;;;;3.50;1.25;;;;;11.79;57.24;100175.25;5002381;28;45239;-46
2021/05/21 23:41:02;;;;;;;;;4.00;1.00;;;;;11.76;57.40;100185.00;5002570;28;45321;-47
2021/05/21 23:43:27;;;;;;;;;3.25;1.00;;;;;11.77;57.37;100186.72;5002069;28;45333;-48
2021/05/21 23:45:52;;;;;;;;;2.00;0.50;;;;;11.73;57.36;100169.28;5002623;28;45438;-48
2021/05/21 23:48:18;;;;;;;;;3.00;1.00;;;;;11.72;57.65;100189.47;5002165;28;45239;-46
2021/05/21 23:50:43;;;;;;;;;2.50;1.50;;;;;11.69;57.53;100179.88;4985067;28;45412;-48
2021/05/21 23:53:09;;;;;;;;;1.00;1.00;;;;;11.65;58.28;100180.03;4984500;28;46088;-49
2021/05/21 23:55:34;;;;;;;;;1.00;1.00;;;;;11.58;58.29;100192.47;5002200;28;45238;-45
2021/05/21 23:57:59;;;;;;;;;0.00;0.00;;;;;11.52;58.65;100196.16;5001797;28;45344;-48
